Time;durP1;ratioP1;P1;durP2;ratioP2;P2;SDS_P1;SDS_P2;PMS_P1;PMS_P2;Temp;Humidity;BMP_temperature;BMP_pressure;BME280_temperature;BME280_humidity;BME280_pressure;Samples;Min_cycle;Max_cycle;Signal;HPM_P1;HPM_P2
2021/10/18 00:01:24;;;;;;;1.53;1.47;;;10.60;98.00;;;;;;5033209;28;20483;-65
2021/10/18 00:03:51;;;;;;;1.77;1.67;;;10.60;98.00;;;;;;5033111;28;20455;-64
2021/10/18 00:06:19;;;;;;;2.33;1.70;;;10.40;98.00;;;;;;5033284;28;20456;-64
2021/10/18 00:08:46;;;;;;;1.90;1.60;;;10.30;98.00;;;;;;5015542;28;21095;-64
2021/10/18 00:11:15;;;;;;;1.60;1.53;;;10.20;98.00;;;;;;5033148;28;20548;-64
2021/10/18 00:13:41;;;;;;;2.07;1.83;;;10.20;98.00;;;;;;5032810;28;20518;-64
2021/10/18 00:16:10;;;;;;;1.83;1.67;;;10.00;98.00;;;;;;5032868;28;20490;-64
2021/10/18 00:18:37;;;;;;;3.33;1.50;;;10.10;98.00;;;;;;5032838;28;20509;-64
2021/10/18 00:21:04;;;;;;;1.30;1.30;;;10.10;98.00;;;;;;5032629;28;20518;-64
2021/10/18 00:23:30;;;;;;;3.07;1.40;;;10.10;98.00;;;;;;5032609;28;20866;-64
2021/10/18 00:25:57;;;;;;;1.70;1.20;;;10.10;98.00;;;;;;5032751;28;20486;-64
2021/10/18 00:28:24;;;;;;;1.73;1.60;;;10.10;98.00;;;;;;5032346;28;20628;-65
2021/10/18 00:30:52;;;;;;;8.03;2.30;;;10.10;98.00;;;;;;5015085;28;20459;-64
2021/10/18 00:33:21;;;;;;;2.13;1.10;;;10.00;98.00;;;;;;5014986;28;20582;-64
2021/10/18 00:35:48;;;;;;;1.50;1.10;;;10.00;98.00;;;;;;5031533;28;20535;-65
2021/10/18 00:38:15;;;;;;;4.03;1.73;;;9.90;98.00;;;;;;5032327;28;20455;-64
2021/10/18 00:40:42;;;;;;;1.87;1.50;;;9.90;98.00;;;;;;5014739;28;20516;-64
2021/10/18 00:43:10;;;;;;;1.63;1.47;;;10.00;98.00;;;;;;5032263;28;20461;-64
2021/10/18 00:45:37;;;;;;;1.20;1.20;;;9.90;98.00;;;;;;5032106;28;20812;-64
2021/10/18 00:48:05;;;;;;;1.40;1.30;;;9.90;98.00;;;;;;5032411;28;20458;-64
2021/10/18 00:50:33;;;;;;;1.83;1.40;;;10.00;98.00;;;;;;5032156;28;20493;-64
2021/10/18 00:53:01;;;;;;;1.47;1.17;;;10.00;98.00;;;;;;5032139;28;21023;-64
2021/10/18 00:55:28;;;;;;;1.63;1.40;;;10.00;98.00;;;;;;5031883;28;20484;-64
2021/10/18 00:57:55;;;;;;;1.90;1.57;;;10.00;98.00;;;;;;5031929;28;20479;-64
2021/10/18 01:00:22;;;;;;;1.83;1.20;;;10.00;98.00;;;;;;5031843;28;20501;-64
2021/10/18 01:02:50;;;;;;;1.67;1.63;;;10.00;98.00;;;;;;5031937;28;20518;-64
2021/10/18 01:05:18;;;;;;;1.30;1.20;;;10.00;98.00;;;;;;5031770;28;20485;-64
2021/10/18 01:07:47;;;;;;;1.97;1.53;;;9.90;98.00;;;;;;5031917;28;20530;-64
2021/10/18 01:10:14;;;;;;;1.70;1.50;;;9.90;98.00;;;;;;5031689;28;20512;-64
2021/10/18 01:12:41;;;;;;;2.20;1.47;;;9.80;98.00;;;;;;5031735;28;20497;-64
2021/10/18 01:15:10;;;;;;;2.00;1.63;;;9.70;98.00;;;;;;5031467;28;20486;-64
2021/10/18 01:17:37;;;;;;;1.77;1.53;;;9.70;98.00;;;;;;5031629;28;20967;-64
2021/10/18 01:20:09;;;;;;;2.03;1.40;;;9.70;98.00;;;;;;5031583;28;20805;-64
2021/10/18 01:22:37;;;;;;;1.57;1.50;;;9.80;98.00;;;;;;5031559;28;20450;-65
2021/10/18 01:25:05;;;;;;;1.40;1.30;;;9.80;98.00;;;;;;5031558;28;20507;-64
2021/10/18 01:27:32;;;;;;;1.70;1.30;;;9.70;98.00;;;;;;5031479;28;21076;-64
2021/10/18 01:29:59;;;;;;;1.50;1.43;;;9.70;98.00;;;;;;5031638;28;20458;-65
2021/10/18 01:32:26;;;;;;;1.20;1.20;;;9.70;98.00;;;;;;5031796;28;20962;-65
2021/10/18 01:34:53;;;;;;;1.27;1.20;;;9.70;98.00;;;;;;5031660;28;20525;-64
2021/10/18 01:37:21;;;;;;;1.40;1.13;;;9.60;98.00;;;;;;5031536;28;20518;-64
2021/10/18 01:39:50;;;;;;;1.40;1.20;;;9.70;98.00;;;;;;5031320;28;20489;-64
2021/10/18 01:42:17;;;;;;;1.50;1.30;;;9.70;98.00;;;;;;5031525;28;20465;-65
2021/10/18 01:44:44;;;;;;;1.77;1.33;;;9.70;98.00;;;;;;5031261;28;20960;-65
2021/10/18 01:47:10;;;;;;;2.40;1.97;;;9.60;98.00;;;;;;5031116;28;20493;-64
2021/10/18 01:49:37;;;;;;;1.57;1.50;;;9.60;98.00;;;;;;5031047;28;20487;-65
2021/10/18 01:52:05;;;;;;;1.53;1.17;;;9.70;98.00;;;;;;5031197;28;20488;-65
2021/10/18 01:54:32;;;;;;;2.90;1.90;;;9.70;98.00;;;;;;5030873;28;20517;-64
2021/10/18 01:57:00;;;;;;;1.80;1.63;;;9.60;98.00;;;;;;5031098;28;20453;-64
2021/10/18 01:59:28;;;;;;;1.70;1.33;;;9.60;98.00;;;;;;5030953;28;20819;-64
2021/10/18 02:01:55;;;;;;;1.63;1.63;;;9.60;98.00;;;;;;5031003;28;20814;-64
2021/10/18 02:04:22;;;;;;;3.57;1.83;;;9.70;98.00;;;;;;5031072;28;20554;-64
2021/10/18 02:06:49;;;;;;;1.20;1.17;;;9.70;98.00;;;;;;5030933;28;20468;-64
2021/10/18 02:09:24;;;;;;;2.13;1.50;;;9.70;98.00;;;;;;5031006;28;20458;-64
2021/10/18 02:11:51;;;;;;;1.27;1.23;;;9.70;98.00;;;;;;5030928;28;20947;-64
2021/10/18 02:14:19;;;;;;;1.80;1.20;;;9.70;98.00;;;;;;5030849;28;20518;-64
2021/10/18 02:16:46;;;;;;;1.40;1.40;;;9.70;98.00;;;;;;5030918;28;20457;-64
2021/10/18 02:19:13;;;;;;;2.90;1.73;;;9.60;98.00;;;;;;5030741;28;20461;-64
2021/10/18 02:21:40;;;;;;;2.50;1.70;;;9.70;98.00;;;;;;5030800;28;20457;-64
2021/10/18 02:24:07;;;;;;;4.70;1.43;;;9.80;98.00;;;;;;5030675;28;20454;-64
2021/10/18 02:26:34;;;;;;;2.07;1.60;;;9.80;98.00;;;;;;5013184;28;20509;-64
2021/10/18 02:29:01;;;;;;;2.80;2.17;;;9.80;98.00;;;;;;5030807;28;20913;-64
2021/10/18 02:31:29;;;;;;;1.70;1.20;;;9.90;98.00;;;;;;5030794;28;20461;-64
2021/10/18 02:33:56;;;;;;;5.13;1.50;;;9.90;98.00;;;;;;5030999;28;20559;-64
2021/10/18 02:36:24;;;;;;;1.97;1.57;;;10.10;98.00;;;;;;5030706;28;20558;-65
2021/10/18 02:38:51;;;;;;;1.93;1.13;;;10.00;98.00;;;;;;5030520;28;20509;-64
2021/10/18 02:41:18;;;;;;;4.43;2.03;;;9.90;98.00;;;;;;5030779;28;20494;-64
2021/10/18 02:43:45;;;;;;;2.90;1.77;;;9.80;98.00;;;;;;5030547;28;21026;-64
2021/10/18 02:46:12;;;;;;;2.07;1.77;;;9.90;98.00;;;;;;5030692;28;20961;-64
2021/10/18 02:48:41;;;;;;;3.00;1.87;;;9.80;98.00;;;;;;5030607;28;20462;-64
2021/10/18 02:51:07;;;;;;;1.63;1.53;;;9.70;98.00;;;;;;5030827;28;20500;-64
2021/10/18 02:53:34;;;;;;;2.27;1.73;;;9.80;98.00;;;;;;5030610;28;20519;-64
2021/10/18 02:56:01;;;;;;;2.53;1.70;;;9.80;98.00;;;;;;5030790;28;20526;-64
2021/10/18 02:58:28;;;;;;;1.83;1.30;;;9.90;98.00;;;;;;5032026;28;20484;-64
2021/10/18 03:00:55;;;;;;;1.50;1.40;;;9.90;98.00;;;;;;5034309;28;20498;-64
2021/10/18 03:03:23;;;;;;;1.30;1.20;;;9.80;98.00;;;;;;5034306;28;20456;-64
2021/10/18 03:05:52;;;;;;;3.10;1.67;;;9.80;98.00;;;;;;5034064;28;21046;-64
2021/10/18 03:08:19;;;;;;;2.57;1.50;;;9.80;98.00;;;;;;5034103;28;20550;-64
2021/10/18 03:10:45;;;;;;;5.10;1.90;;;9.80;98.00;;;;;;5034118;28;20462;-64
2021/10/18 03:13:14;;;;;;;2.80;1.77;;;9.70;98.00;;;;;;5034188;28;20458;-64
2021/10/18 03:15:41;;;;;;;4.33;1.43;;;9.80;98.00;;;;;;5033730;28;20489;-64
2021/10/18 03:18:08;;;;;;;2.63;2.00;;;9.90;98.00;;;;;;5033763;28;20450;-64
2021/10/18 03:20:35;;;;;;;5.17;1.93;;;9.90;98.00;;;;;;5033661;28;20464;-64
2021/10/18 03:23:04;;;;;;;1.87;1.53;;;9.90;98.00;;;;;;5033986;28;20457;-64
2021/10/18 03:25:34;;;;;;;2.77;2.03;;;9.90;98.00;;;;;;5033621;28;20956;-65
2021/10/18 03:28:01;;;;;;;1.40;1.30;;;9.80;98.00;;;;;;5033271;28;20868;-64
2021/10/18 03:30:31;;;;;;;1.30;1.30;;;9.70;98.00;;;;;;5033522;28;20484;-64
2021/10/18 03:32:58;;;;;;;2.30;1.70;;;9.70;98.00;;;;;;5033797;28;20967;-64
2021/10/18 03:35:25;;;;;;;1.60;1.33;;;9.70;98.00;;;;;;5033331;28;20535;-64
2021/10/18 03:37:52;;;;;;;2.50;1.80;;;9.70;98.00;;;;;;5033373;28;20488;-64
2021/10/18 03:40:21;;;;;;;2.33;1.70;;;9.70;98.00;;;;;;5033582;28;20945;-64
2021/10/18 03:42:48;;;;;;;1.50;1.40;;;9.80;98.00;;;;;;5033521;28;20473;-64
2021/10/18 03:45:15;;;;;;;5.43;1.53;;;9.80;98.00;;;;;;5033695;28;20991;-65
2021/10/18 03:47:43;;;;;;;2.03;1.60;;;9.80;98.00;;;;;;5033189;28;20544;-65
2021/10/18 03:50:10;;;;;;;2.30;1.83;;;9.70;98.00;;;;;;5033357;28;20554;-64
2021/10/18 03:52:37;;;;;;;2.03;1.87;;;9.80;98.00;;;;;;5033073;28;20465;-64
2021/10/18 03:55:05;;;;;;;2.63;1.70;;;9.80;98.00;;;;;;5033086;28;20541;-64
2021/10/18 03:57:34;;;;;;;1.27;1.17;;;9.80;98.00;;;;;;5033047;28;20487;-64
2021/10/18 04:00:01;;;;;;;5.70;2.10;;;9.80;98.00;;;;;;5033170;28;20873;-64
2021/10/18 04:02:28;;;;;;;1.60;1.50;;;9.80;98.00;;;;;;5033065;28;20469;-64
2021/10/18 04:04:55;;;;;;;1.87;1.77;;;9.80;98.00;;;;;;5015338;28;20544;-64
2021/10/18 04:07:22;;;;;;;3.63;1.93;;;9.80;98.00;;;;;;5033256;28;20496;-64
2021/10/18 04:09:49;;;;;;;1.60;1.43;;;9.70;98.00;;;;;;5032870;28;20512;-65
2021/10/18 04:12:17;;;;;;;1.97;1.20;;;9.80;98.00;;;;;;5032905;28;20492;-64
2021/10/18 04:14:45;;;;;;;3.57;1.87;;;9.80;98.00;;;;;;5032961;28;20514;-64
2021/10/18 04:17:12;;;;;;;1.40;1.30;;;9.80;98.00;;;;;;5033168;28;20535;-64
2021/10/18 04:19:39;;;;;;;3.00;1.90;;;9.80;98.00;;;;;;5033174;28;20494;-64
2021/10/18 04:22:06;;;;;;;3.17;2.10;;;10.00;98.00;;;;;;5032858;28;20622;-64
2021/10/18 04:24:33;;;;;;;8.20;2.00;;;10.10;98.00;;;;;;5032822;28;20489;-64
2021/10/18 04:26:59;;;;;;;2.17;1.50;;;10.10;98.00;;;;;;5032641;28;20658;-64
2021/10/18 04:29:30;;;;;;;2.80;1.57;;;9.90;98.00;;;;;;5032427;28;21094;-65
2021/10/18 04:31:59;;;;;;;1.40;1.30;;;10.00;98.00;;;;;;5032530;28;20462;-65
2021/10/18 04:34:26;;;;;;;2.50;2.10;;;9.90;98.00;;;;;;5032166;28;20511;-64
2021/10/18 04:36:53;;;;;;;2.70;1.73;;;9.90;98.00;;;;;;5032410;28;20957;-64
2021/10/18 04:39:20;;;;;;;1.63;1.60;;;9.90;98.00;;;;;;5032344;28;20882;-64
2021/10/18 04:41:47;;;;;;;2.57;1.77;;;9.90;98.00;;;;;;5032280;28;20513;-64
2021/10/18 04:44:15;;;;;;;2.83;2.40;;;9.90;98.00;;;;;;5014687;28;20513;-64
2021/10/18 04:46:43;;;;;;;1.97;1.70;;;9.80;98.00;;;;;;5032281;28;20552;-64
2021/10/18 04:49:11;;;;;;;3.33;1.47;;;9.80;98.00;;;;;;5032174;28;20465;-65
2021/10/18 04:51:41;;;;;;;1.30;1.23;;;9.80;98.00;;;;;;5032210;28;20462;-64
2021/10/18 04:54:08;;;;;;;1.60;1.50;;;9.80;98.00;;;;;;5032146;28;20454;-64
2021/10/18 04:56:35;;;;;;;1.40;1.20;;;9.80;98.00;;;;;;5031957;28;20520;-64
2021/10/18 04:59:01;;;;;;;1.70;1.60;;;9.90;98.00;;;;;;5014467;28;20474;-64
2021/10/18 05:01:28;;;;;;;3.00;1.77;;;9.90;98.00;;;;;;5031945;28;20543;-64
2021/10/18 05:03:55;;;;;;;1.97;1.43;;;9.90;98.00;;;;;;5031948;28;20808;-64
2021/10/18 05:06:26;;;;;;;2.37;1.77;;;9.90;98.00;;;;;;5031894;28;20535;-64
2021/10/18 05:08:54;;;;;;;1.70;1.53;;;9.90;98.00;;;;;;5031844;28;20515;-64
2021/10/18 05:11:21;;;;;;;1.53;1.33;;;9.90;98.00;;;;;;5031965;28;20451;-64
2021/10/18 05:13:48;;;;;;;1.57;1.40;;;9.90;98.00;;;;;;5031643;28;20480;-64
2021/10/18 05:16:15;;;;;;;1.50;1.40;;;9.90;98.00;;;;;;5031664;28;21065;-64
2021/10/18 05:18:42;;;;;;;4.13;1.90;;;9.90;98.00;;;;;;5031709;28;20462;-64
2021/10/18 05:21:09;;;;;;;1.40;1.30;;;10.00;98.00;;;;;;5031127;28;20455;-64
2021/10/18 05:23:38;;;;;;;1.87;1.73;;;10.20;98.00;;;;;;5031666;28;20489;-64
2021/10/18 05:26:05;;;;;;;4.70;1.97;;;10.20;98.00;;;;;;5031582;28;20966;-64
2021/10/18 05:28:32;;;;;;;2.10;1.20;;;10.20;98.00;;;;;;5031381;28;20513;-64
2021/10/18 05:30:59;;;;;;;5.73;2.17;;;10.00;98.00;;;;;;5031368;28;21014;-64
2021/10/18 05:33:26;;;;;;;1.97;1.73;;;10.00;98.00;;;;;;5031408;28;20527;-64
2021/10/18 05:35:53;;;;;;;2.63;1.50;;;9.90;98.00;;;;;;5031354;28;21046;-64
2021/10/18 05:38:20;;;;;;;2.80;1.60;;;9.80;98.00;;;;;;5031648;28;20456;-64
2021/10/18 05:40:49;;;;;;;2.33;1.80;;;9.80;98.00;;;;;;5031642;28;20830;-64
2021/10/18 05:43:16;;;;;;;3.40;1.93;;;9.70;98.00;;;;;;5031557;28;20493;-64
2021/10/18 05:45:43;;;;;;;1.67;1.30;;;9.70;98.00;;;;;;5031273;28;20503;-64
2021/10/18 05:48:11;;;;;;;1.50;1.47;;;9.60;98.00;;;;;;5031187;28;20522;-64
2021/10/18 05:50:42;;;;;;;2.27;1.73;;;9.50;98.00;;;;;;5031066;28;20481;-64
2021/10/18 05:53:09;;;;;;;1.73;1.73;;;9.40;98.00;;;;;;5031174;28;20457;-64
2021/10/18 05:55:39;;;;;;;1.30;1.20;;;9.40;98.00;;;;;;5030831;28;20525;-64
2021/10/18 05:58:08;;;;;;;1.50;1.40;;;9.40;98.00;;;;;;5014319;28;20469;-64
2021/10/18 06:00:39;;;;;;;1.63;1.20;;;9.50;98.00;;;;;;5030926;28;20466;-64
2021/10/18 06:03:07;;;;;;;1.70;1.60;;;9.50;98.00;;;;;;5013803;28;20540;-65
2021/10/18 06:05:42;;;;;;;1.70;1.70;;;9.60;98.00;;;;;;5031068;28;20461;-65
2021/10/18 06:08:09;;;;;;;2.27;1.60;;;9.60;98.00;;;;;;5030972;28;20470;-64
2021/10/18 06:10:38;;;;;;;2.60;1.97;;;9.70;98.00;;;;;;5030861;28;20514;-64
2021/10/18 06:13:08;;;;;;;1.40;1.33;;;9.80;98.00;;;;;;5031017;28;21000;-64
2021/10/18 06:15:35;;;;;;;5.23;2.60;;;9.80;98.00;;;;;;5030762;28;20479;-64
2021/10/18 06:18:15;;;;;;;2.67;1.67;;;9.90;98.00;;;;;;5030891;28;20490;-63
2021/10/18 06:20:43;;;;;;;8.63;2.30;;;9.90;98.00;;;;;;5030651;28;20511;-65
2021/10/18 06:23:14;;;;;;;3.13;1.60;;;9.90;98.00;;;;;;5031008;28;20524;-64
2021/10/18 06:25:41;;;;;;;3.47;1.40;;;10.00;98.00;;;;;;5030828;28;20453;-64
2021/10/18 06:28:11;;;;;;;1.97;1.10;;;10.10;98.00;;;;;;5030595;28;21023;-64
2021/10/18 06:30:38;;;;;;;1.67;1.60;;;10.00;98.00;;;;;;5030626;28;20498;-64
2021/10/18 06:33:05;;;;;;;1.83;1.70;;;9.90;98.00;;;;;;5031510;28;20561;-64
2021/10/18 06:35:33;;;;;;;2.00;1.20;;;10.00;98.00;;;;;;5034459;28;21004;-64
2021/10/18 06:38:01;;;;;;;2.37;1.30;;;10.10;98.00;;;;;;5034703;28;20577;-64
2021/10/18 06:40:28;;;;;;;1.80;1.27;;;10.10;98.00;;;;;;5034660;28;20886;-64
2021/10/18 06:42:55;;;;;;;2.67;1.70;;;10.10;98.00;;;;;;5034563;28;20945;-64
2021/10/18 06:45:23;;;;;;;2.30;1.70;;;10.10;98.00;;;;;;5034692;28;20496;-64
2021/10/18 06:47:50;;;;;;;2.63;2.10;;;10.20;98.00;;;;;;5034530;28;20521;-64
2021/10/18 06:50:17;;;;;;;1.50;1.10;;;10.10;98.00;;;;;;5016907;28;20462;-64
2021/10/18 06:52:44;;;;;;;2.60;1.90;;;10.20;98.00;;;;;;5034606;28;20495;-64
2021/10/18 06:55:12;;;;;;;2.00;1.80;;;10.20;98.00;;;;;;5034403;28;20447;-64
2021/10/18 06:57:40;;;;;;;3.03;1.90;;;10.20;98.00;;;;;;5034523;28;20464;-64
2021/10/18 07:00:09;;;;;;;1.80;1.60;;;10.10;98.00;;;;;;5034671;28;20534;-65
2021/10/18 07:02:37;;;;;;;2.70;2.17;;;10.10;98.00;;;;;;5034535;28;20521;-64
2021/10/18 07:05:05;;;;;;;1.37;1.13;;;10.20;98.00;;;;;;5034443;28;20459;-63
2021/10/18 07:07:36;;;;;;;1.70;1.40;;;10.20;98.00;;;;;;5034139;28;20487;-64
2021/10/18 07:10:05;;;;;;;2.43;1.87;;;10.10;98.00;;;;;;5034038;28;20455;-64
2021/10/18 07:12:33;;;;;;;2.33;1.50;;;10.10;98.00;;;;;;5033896;28;20459;-64
2021/10/18 07:15:01;;;;;;;2.00;1.63;;;10.30;98.00;;;;;;5034064;28;20478;-63
2021/10/18 07:17:28;;;;;;;1.93;1.53;;;10.50;98.00;;;;;;5033957;28;20579;-63
2021/10/18 07:19:58;;;;;;;1.60;1.50;;;10.60;98.00;;;;;;5033923;28;20509;-64
2021/10/18 07:22:29;;;;;;;1.83;1.60;;;10.70;98.00;;;;;;5034128;28;20492;-64
2021/10/18 07:24:57;;;;;;;2.70;1.50;;;10.60;98.00;;;;;;5033994;28;20553;-64
2021/10/18 07:27:25;;;;;;;1.77;1.67;;;10.50;98.00;;;;;;5033900;28;20465;-64
2021/10/18 07:29:52;;;;;;;2.20;1.53;;;10.50;98.00;;;;;;5033777;28;20455;-64
2021/10/18 07:32:19;;;;;;;1.40;1.30;;;10.40;98.00;;;;;;5033613;28;20458;-63
2021/10/18 07:34:46;;;;;;;1.20;1.10;;;10.40;98.00;;;;;;5033383;28;20498;-64
2021/10/18 07:37:14;;;;;;;2.43;1.30;;;10.40;98.00;;;;;;5033468;28;20573;-64
2021/10/18 07:39:42;;;;;;;2.10;1.70;;;10.40;98.00;;;;;;5033318;28;20452;-64
2021/10/18 07:42:13;;;;;;;1.20;1.20;;;10.40;98.00;;;;;;5015937;28;20457;-64
2021/10/18 07:44:40;;;;;;;2.13;1.40;;;10.40;98.00;;;;;;5033056;28;20466;-64
2021/10/18 07:47:08;;;;;;;4.07;2.00;;;10.40;98.00;;;;;;5033281;28;20497;-64
2021/10/18 07:49:36;;;;;;;1.40;1.30;;;10.40;98.00;;;;;;5033130;28;20493;-64
2021/10/18 07:52:04;;;;;;;2.90;1.90;;;10.70;98.00;;;;;;5015556;28;20459;-64
2021/10/18 07:54:32;;;;;;;3.03;1.77;;;10.90;98.00;;;;;;5033154;28;20516;-64
2021/10/18 07:57:00;;;;;;;2.90;1.90;;;11.00;98.00;;;;;;5015595;28;20893;-63
2021/10/18 07:59:26;;;;;;;2.00;1.53;;;11.00;98.00;;;;;;5032874;28;20875;-63
2021/10/18 08:01:55;;;;;;;3.30;2.00;;;10.90;98.00;;;;;;5033093;28;21007;-64
2021/10/18 08:04:23;;;;;;;1.40;1.10;;;10.80;98.00;;;;;;5033145;28;20540;-64
2021/10/18 08:06:50;;;;;;;2.73;1.87;;;10.70;98.00;;;;;;4999236;28;20454;-64
2021/10/18 08:09:17;;;;;;;1.93;1.53;;;10.60;98.00;;;;;;5032974;28;20467;-64
2021/10/18 08:11:46;;;;;;;1.50;1.43;;;10.60;98.00;;;;;;5032923;28;20473;-64
2021/10/18 08:14:13;;;;;;;3.00;2.23;;;10.70;98.00;;;;;;5032857;28;20461;-64
2021/10/18 08:16:40;;;;;;;2.47;1.63;;;10.90;98.00;;;;;;5032801;28;20526;-64
2021/10/18 08:19:07;;;;;;;2.43;1.50;;;10.80;98.00;;;;;;5015204;28;20545;-64
2021/10/18 08:21:34;;;;;;;1.97;1.60;;;10.70;98.00;;;;;;5032977;28;20961;-64
2021/10/18 08:24:01;;;;;;;2.37;1.67;;;10.70;98.00;;;;;;5015695;28;21067;-64
2021/10/18 08:26:28;;;;;;;2.87;1.93;;;10.80;98.00;;;;;;5032816;28;20513;-64
2021/10/18 08:28:56;;;;;;;6.60;2.20;;;10.80;98.00;;;;;;5032591;28;20470;-64
2021/10/18 08:31:26;;;;;;;1.40;1.20;;;10.70;98.00;;;;;;5032511;28;20949;-64
2021/10/18 08:33:53;;;;;;;1.60;1.57;;;10.80;98.00;;;;;;5032476;28;20458;-63
2021/10/18 08:36:20;;;;;;;2.90;1.77;;;10.70;98.00;;;;;;5032536;28;20526;-64
2021/10/18 08:38:49;;;;;;;2.47;2.30;;;10.70;98.00;;;;;;5032541;28;20467;-64
2021/10/18 08:41:21;;;;;;;2.17;1.70;;;10.70;98.00;;;;;;5032483;28;20541;-64
2021/10/18 08:46:34;;;;;;;1.93;1.43;;;10.90;98.00;;;;;;5032412;28;20461;-64
2021/10/18 08:49:01;;;;;;;1.77;1.67;;;10.90;98.00;;;;;;5032272;28;20461;-64
2021/10/18 08:51:28;;;;;;;1.97;1.50;;;11.00;98.00;;;;;;5032113;28;20496;-65
2021/10/18 08:53:56;;;;;;;2.03;1.70;;;11.00;98.00;;;;;;5014726;28;20455;-64
2021/10/18 08:56:23;;;;;;;2.00;1.60;;;11.10;98.00;;;;;;5031195;28;20540;-63
2021/10/18 08:58:51;;;;;;;2.40;1.53;;;11.10;98.00;;;;;;5032003;28;20458;-64
2021/10/18 09:01:18;;;;;;;1.30;1.20;;;11.20;98.00;;;;;;5031924;28;20465;-64
2021/10/18 09:03:47;;;;;;;1.60;1.53;;;11.20;98.00;;;;;;5031937;28;20461;-65
2021/10/18 09:06:18;;;;;;;1.50;1.30;;;11.10;98.00;;;;;;5014483;28;20459;-64
2021/10/18 09:08:48;;;;;;;2.70;1.87;;;11.00;98.00;;;;;;5031835;28;20507;-64
2021/10/18 09:11:17;;;;;;;1.57;1.43;;;11.00;98.00;;;;;;5031664;28;20793;-64
2021/10/18 09:13:55;;;;;;;3.40;1.33;;;10.90;98.00;;;;;;5031665;28;20457;-64
2021/10/18 09:16:24;;;;;;;1.63;1.43;;;10.80;98.00;;;;;;5031637;28;21105;-64
2021/10/18 09:19:05;;;;;;;1.97;1.43;;;10.90;98.00;;;;;;5031768;28;20485;-65
2021/10/18 09:21:35;;;;;;;2.27;1.20;;;10.80;98.00;;;;;;5031632;28;20472;-65
2021/10/18 09:24:03;;;;;;;2.90;1.80;;;10.80;98.00;;;;;;5031791;28;20520;-64
2021/10/18 09:26:32;;;;;;;3.67;2.20;;;10.80;98.00;;;;;;5031546;28;20895;-64
2021/10/18 09:29:05;;;;;;;1.87;1.37;;;10.80;98.00;;;;;;5031488;28;20478;-64
2021/10/18 09:31:32;;;;;;;2.40;2.10;;;10.90;98.00;;;;;;5031486;28;20458;-64
2021/10/18 09:34:12;;;;;;;1.87;1.23;;;10.90;98.00;;;;;;5031402;28;20467;-64
2021/10/18 09:36:41;;;;;;;1.30;1.17;;;10.90;98.00;;;;;;5031491;28;20479;-64
2021/10/18 09:39:17;;;;;;;2.63;1.50;;;11.00;98.00;;;;;;5014203;28;20462;-64
2021/10/18 09:41:56;;;;;;;1.93;1.30;;;11.00;98.00;;;;;;5031421;28;20466;-64
2021/10/18 09:44:34;;;;;;;2.03;1.60;;;11.10;98.00;;;;;;5031831;28;20551;-65
2021/10/18 10:51:09;;;;;;;1.60;1.60;;;13.70;98.00;;;;;;5016547;28;20457;-64
2021/10/18 10:53:47;;;;;;;1.60;1.50;;;14.00;98.00;;;;;;5030629;28;20920;-64
2021/10/18 10:56:28;;;;;;;3.27;2.10;;;14.10;98.00;;;;;;5030519;28;20520;-65
2021/10/18 10:59:12;;;;;;;3.03;2.37;;;14.40;98.00;;;;;;5030553;28;20519;-64
2021/10/18 11:01:46;;;;;;;1.40;1.40;;;14.60;98.00;;;;;;5013649;28;20456;-65
2021/10/18 11:04:45;;;;;;;2.80;1.80;;;14.90;98.00;;;;;;5030560;28;20496;-64
2021/10/18 11:07:15;;;;;;;1.50;1.43;;;15.00;98.00;;;;;;5030773;28;20517;-64
2021/10/18 11:09:47;;;;;;;1.63;1.63;;;15.10;98.00;;;;;;5030598;28;20456;-64
2021/10/18 11:12:27;;;;;;;1.87;1.50;;;15.40;98.00;;;;;;5030411;28;20458;-64
2021/10/18 11:15:01;;;;;;;2.17;1.50;;;15.50;98.00;;;;;;5030337;28;20914;-64
2021/10/18 11:17:30;;;;;;;2.70;2.00;;;15.60;98.00;;;;;;5012815;28;20500;-65
2021/10/18 11:19:59;;;;;;;2.97;2.20;;;15.90;98.00;;;;;;5032233;28;20537;-65
2021/10/18 11:22:29;;;;;;;3.00;2.10;;;16.20;98.00;;;;;;5033783;28;20548;-65
2021/10/18 11:24:56;;;;;;;1.80;1.67;;;16.50;98.00;;;;;;5016548;28;20462;-65
2021/10/18 11:27:32;;;;;;;2.83;1.80;;;16.60;98.00;;;;;;5033774;28;20982;-64
2021/10/18 11:30:02;;;;;;;1.70;1.70;;;16.70;98.00;;;;;;5033638;28;20459;-64
2021/10/18 11:32:31;;;;;;;1.80;1.63;;;17.00;98.00;;;;;;5033704;28;20468;-64
2021/10/18 11:35:16;;;;;;;1.90;1.80;;;17.20;98.00;;;;;;5033759;28;20539;-65
2021/10/18 11:37:51;;;;;;;1.87;1.73;;;17.20;98.00;;;;;;5033558;28;20625;-65
2021/10/18 11:40:21;;;;;;;2.30;2.10;;;17.30;98.00;;;;;;5033571;28;20463;-64
2021/10/18 11:42:52;;;;;;;1.50;1.50;;;17.40;97.40;;;;;;5033541;28;20941;-65
2021/10/18 11:45:20;;;;;;;2.60;2.37;;;17.40;97.60;;;;;;5033360;28;21022;-65
2021/10/18 11:47:48;;;;;;;1.67;1.50;;;17.60;97.20;;;;;;5033559;28;20461;-65
2021/10/18 11:50:21;;;;;;;1.40;1.30;;;17.40;98.00;;;;;;5015642;28;20459;-64
2021/10/18 11:52:54;;;;;;;2.60;1.80;;;17.30;96.80;;;;;;5033269;28;20464;-65
2021/10/18 11:55:26;;;;;;;2.17;1.63;;;17.20;97.40;;;;;;5033635;28;21147;-64
2021/10/18 11:57:56;;;;;;;3.13;2.03;;;17.00;98.00;;;;;;5015531;28;20528;-64
2021/10/18 12:00:25;;;;;;;2.23;1.77;;;16.70;98.00;;;;;;5033212;28;20517;-64
2021/10/18 12:02:54;;;;;;;1.40;1.23;;;16.40;98.00;;;;;;5015591;28;20484;-65
2021/10/18 12:05:23;;;;;;;2.07;1.93;;;16.20;98.00;;;;;;5033092;28;20810;-65
2021/10/18 12:07:51;;;;;;;2.13;1.70;;;16.20;98.00;;;;;;5033030;28;20543;-64
2021/10/18 12:10:22;;;;;;;1.63;1.40;;;16.00;98.00;;;;;;5033155;28;20462;-64
2021/10/18 12:13:29;;;;;;;1.80;1.67;;;16.00;98.00;;;;;;5032642;28;20526;-65
2021/10/18 12:16:13;;;;;;;3.33;1.93;;;15.80;98.00;;;;;;5032778;28;20522;-64
2021/10/18 12:18:47;;;;;;;2.47;1.90;;;15.90;98.00;;;;;;5015403;28;20487;-64
2021/10/18 12:21:19;;;;;;;2.53;2.03;;;15.80;98.00;;;;;;5032829;28;20894;-65
2021/10/18 12:23:51;;;;;;;1.43;1.37;;;15.80;98.00;;;;;;5032771;28;20491;-65
2021/10/18 12:26:20;;;;;;;1.53;1.30;;;15.70;98.00;;;;;;5032898;28;21025;-64
2021/10/18 12:28:50;;;;;;;1.90;1.20;;;15.60;98.00;;;;;;5032927;28;20470;-65
2021/10/18 12:31:35;;;;;;;2.43;1.40;;;15.70;98.00;;;;;;5032087;28;20460;-65
2021/10/18 12:34:14;;;;;;;2.30;1.67;;;15.80;98.00;;;;;;5015191;28;20463;-64
2021/10/18 12:37:00;;;;;;;1.70;1.47;;;16.10;98.00;;;;;;5032540;28;20459;-64
2021/10/18 12:39:44;;;;;;;1.80;1.70;;;16.20;98.00;;;;;;5032258;28;20559;-65
2021/10/18 12:42:13;;;;;;;2.50;1.60;;;16.40;98.00;;;;;;5032508;28;20456;-65
2021/10/18 12:44:43;;;;;;;1.93;1.83;;;16.50;98.00;;;;;;5031049;28;20520;-65
2021/10/18 12:47:12;;;;;;;1.93;1.70;;;16.70;98.00;;;;;;5032330;28;20504;-64
2021/10/18 12:49:39;;;;;;;3.73;1.77;;;16.70;98.00;;;;;;5014483;28;20464;-65
2021/10/18 12:52:06;;;;;;;1.60;1.57;;;16.80;98.00;;;;;;5032213;28;20518;-65
2021/10/18 12:54:41;;;;;;;3.17;1.90;;;16.90;98.00;;;;;;5032301;28;20534;-64
2021/10/18 12:57:10;;;;;;;5.13;2.23;;;17.10;98.00;;;;;;5031940;28;20932;-65
2021/10/18 12:59:39;;;;;;;3.23;2.07;;;17.30;98.00;;;;;;5031856;28;20796;-65
2021/10/18 13:02:22;;;;;;;2.67;1.83;;;17.50;98.00;;;;;;5032056;28;20485;-64
2021/10/18 13:05:14;;;;;;;1.97;1.63;;;17.70;98.00;;;;;;5032129;28;20463;-65
2021/10/18 13:07:43;;;;;;;1.40;1.40;;;17.90;98.00;;;;;;5031903;28;20457;-64
2021/10/18 13:10:13;;;;;;;2.90;2.00;;;17.90;97.70;;;;;;5031973;28;20454;-64
2021/10/18 13:12:40;;;;;;;1.57;1.50;;;17.70;97.90;;;;;;5031664;28;20457;-64
2021/10/18 13:15:10;;;;;;;2.30;1.90;;;17.60;98.00;;;;;;5031724;28;20478;-64
2021/10/18 13:17:39;;;;;;;2.13;1.67;;;17.40;98.00;;;;;;5031563;28;20523;-65
2021/10/18 13:20:09;;;;;;;2.60;1.87;;;17.60;98.00;;;;;;5031709;28;20494;-64
2021/10/18 13:22:37;;;;;;;1.60;1.50;;;17.90;98.00;;;;;;5031631;28;20454;-64
2021/10/18 13:25:05;;;;;;;3.60;2.43;;;18.00;97.80;;;;;;5031506;28;20461;-64
2021/10/18 13:27:32;;;;;;;2.00;1.67;;;17.80;98.00;;;;;;5031480;28;20494;-65
2021/10/18 13:30:03;;;;;;;2.93;1.87;;;17.80;98.00;;;;;;5031582;28;20497;-64
2021/10/18 13:32:30;;;;;;;2.80;2.13;;;18.00;98.00;;;;;;5014379;28;20899;-64
2021/10/18 13:34:59;;;;;;;2.30;1.87;;;18.10;96.60;;;;;;5031658;28;20913;-64
2021/10/18 13:37:27;;;;;;;1.50;1.23;;;18.10;96.50;;;;;;5031478;28;20528;-64
2021/10/18 13:39:55;;;;;;;2.60;1.97;;;18.20;97.40;;;;;;5013905;28;20792;-65
2021/10/18 13:42:22;;;;;;;2.80;2.00;;;18.00;97.20;;;;;;5031053;28;20541;-65
2021/10/18 13:44:50;;;;;;;2.27;1.60;;;18.00;97.90;;;;;;5031042;28;20870;-65
2021/10/18 13:47:17;;;;;;;2.30;1.80;;;18.20;97.30;;;;;;5031503;28;20455;-65
2021/10/18 13:49:44;;;;;;;2.73;1.77;;;18.50;96.00;;;;;;5031558;28;20462;-64
2021/10/18 13:52:15;;;;;;;2.43;1.83;;;18.70;96.70;;;;;;5031474;28;20517;-65
2021/10/18 13:54:42;;;;;;;1.50;1.40;;;18.90;96.80;;;;;;5030942;28;20459;-65
2021/10/18 13:57:09;;;;;;;2.27;2.00;;;19.00;95.30;;;;;;5031004;28;20517;-64
2021/10/18 13:59:37;;;;;;;1.60;1.57;;;18.80;96.10;;;;;;5031076;28;20459;-65
2021/10/18 14:02:06;;;;;;;2.10;1.77;;;18.60;97.40;;;;;;5013807;28;20451;-64
2021/10/18 14:04:33;;;;;;;3.20;2.37;;;18.60;96.50;;;;;;5031211;28;20451;-65
2021/10/18 14:07:01;;;;;;;2.37;1.73;;;18.60;96.50;;;;;;5013508;28;20458;-65